Time;durP1;ratioP1;P1;durP2;ratioP2;P2;SDS_P1;SDS_P2;PMS_P1;PMS_P2;Temp;Humidity;BMP_temperature;BMP_pressure;BME280_temperature;BME280_humidity;BME280_pressure;Samples;Min_cycle;Max_cycle;Signal;HPM_P1;HPM_P2
2022/01/13 00:01:41;;;;;;;;;;;;;;;2.11;92.26;104284.91;5047425;28;19909;-72
2022/01/13 00:04:09;;;;;;;;;;;;;;;2.13;92.39;104286.00;5044802;28;19947;-69
2022/01/13 00:06:34;;;;;;;;;;;;;;;2.05;92.34;104280.84;5045808;28;19912;-69
2022/01/13 00:09:00;;;;;;;;;;;;;;;2.03;92.45;104282.34;5048417;28;19962;-69
2022/01/13 00:11:25;;;;;;;;;;;;;;;2.03;92.31;104279.75;5048547;28;20039;-69
2022/01/13 00:21:43;;;;;;;;;;;;;;;1.98;92.28;104277.38;5027948;28;20244;-68
2022/01/13 00:24:12;;;;;;;;;;;;;;;1.97;92.23;104268.69;5029393;28;20114;-70
2022/01/13 00:26:37;;;;;;;;;;;;;;;1.99;92.47;104274.03;5029718;28;19936;-69
2022/01/13 00:29:03;;;;;;;;;;;;;;;2.00;93.00;104274.19;5030073;28;19909;-70
2022/01/13 00:31:32;;;;;;;;;;;;;;;2.01;92.22;104273.50;5028698;28;19920;-68
2022/01/13 00:33:58;;;;;;;;;;;;;;;2.01;92.59;104275.13;5041616;28;19913;-69
2022/01/13 00:36:33;;;;;;;;;;;;;;;1.99;92.57;104277.53;5050666;28;19909;-68
2022/01/13 00:38:58;;;;;;;;;;;;;;;2.00;92.65;104275.88;5051489;28;19944;-68
2022/01/13 00:41:27;;;;;;;;;;;;;;;2.08;92.45;104269.00;5049271;28;19915;-70
2022/01/13 00:43:53;;;;;;;;;;;;;;;2.05;92.45;104272.16;5034243;28;19913;-70
2022/01/13 00:46:23;;;;;;;;;;;;;;;2.05;92.40;104265.34;5026948;28;19909;-70
2022/01/13 00:48:52;;;;;;;;;;;;;;;2.03;92.63;104273.66;5026998;28;19920;-68
2022/01/13 00:51:18;;;;;;;;;;;;;;;2.00;92.63;104270.72;5027630;28;19913;-70
2022/01/13 00:53:43;;;;;;;;;;;;;;;2.00;92.62;104278.47;5024811;28;19940;-69
2022/01/13 00:56:08;;;;;;;;;;;;;;;2.00;92.65;104281.06;5026046;28;19920;-69
2022/01/13 00:58:34;;;;;;;;;;;;;;;2.01;92.49;104282.88;5023279;28;19909;-69
2022/01/13 01:01:00;;;;;;;;;;;;;;;2.02;92.48;104279.56;5025841;28;19916;-69
2022/01/13 01:03:26;;;;;;;;;;;;;;;2.04;92.10;104283.25;5036087;28;19913;-71
2022/01/13 01:05:51;;;;;;;;;;;;;;;2.03;92.63;104274.59;5050043;28;19940;-72
2022/01/13 01:08:16;;;;;;;;;;;;;;;2.02;92.79;104288.25;5048529;28;20354;-69
2022/01/13 01:10:42;;;;;;;;;;;;;;;2.05;92.51;104293.78;5048750;28;19932;-69
2022/01/13 01:13:13;;;;;;;;;;;;;;;2.05;92.48;104293.78;5045277;28;19921;-70
2022/01/13 01:15:41;;;;;;;;;;;;;;;2.08;92.54;104295.81;5032358;28;20047;-69
2022/01/13 01:18:18;;;;;;;;;;;;;;;2.09;92.46;104295.06;5030703;28;19916;-68
2022/01/13 01:23:27;;;;;;;;;;;;;;;2.09;92.54;104294.13;5033571;28;19928;-70
2022/01/13 01:26:05;;;;;;;;;;;;;;;2.09;92.08;104294.13;5047388;28;19909;-70
2022/01/13 01:28:41;;;;;;;;;;;;;;;2.08;92.51;104297.47;5046179;28;19909;-70
2022/01/13 01:31:06;;;;;;;;;;;;;;;2.10;92.61;104294.31;5044319;28;19927;-70
2022/01/13 01:33:32;;;;;;;;;;;;;;;2.11;92.57;104293.56;5034465;28;19917;-71
2022/01/13 01:35:58;;;;;;;;;;;;;;;2.11;92.63;104296.16;5023173;28;19913;-70
2022/01/13 01:38:23;;;;;;;;;;;;;;;2.13;92.51;104297.25;5023068;28;20231;-70
2022/01/13 01:40:48;;;;;;;;;;;;;;;2.14;92.65;104295.59;5023034;28;19920;-69
2022/01/13 01:43:14;;;;;;;;;;;;;;;2.19;92.80;104299.66;5030256;28;19923;-71
2022/01/13 01:45:44;;;;;;;;;;;;;;;2.20;92.82;104298.94;5045453;28;20000;-69
2022/01/13 01:48:10;;;;;;;;;;;;;;;2.26;92.59;104298.72;5044668;28;19909;-70
2022/01/13 01:50:37;;;;;;;;;;;;;;;2.27;92.81;104295.38;5046371;28;20004;-70
2022/01/13 01:53:03;;;;;;;;;;;;;;;2.28;92.73;104297.22;5046469;28;19913;-69
2022/01/13 01:55:28;;;;;;;;;;;;;;;2.28;92.71;104298.16;5049434;28;19916;-68
2022/01/13 01:57:54;;;;;;;;;;;;;;;2.31;92.67;104295.03;5051647;28;19928;-71
2022/01/13 02:00:20;;;;;;;;;;;;;;;2.31;92.61;104297.59;5052059;28;19908;-69
2022/01/13 02:02:46;;;;;;;;;;;;;;;2.33;92.64;104296.13;5045473;28;19920;-68
2022/01/13 02:05:11;;;;;;;;;;;;;;;2.32;92.72;104296.88;5035096;28;20003;-71
2022/01/13 02:07:36;;;;;;;;;;;;;;;2.33;92.66;104291.88;5051764;28;19956;-68
2022/01/13 02:10:02;;;;;;;;;;;;;;;2.35;92.74;104286.88;5049918;28;19920;-70
2022/01/13 02:12:38;;;;;;;;;;;;;;;2.37;92.76;104287.06;5048912;28;19920;-69
2022/01/13 02:15:27;;;;;;;;;;;;;;;2.40;92.72;104279.63;5042758;28;19920;-68
2022/01/13 02:17:51;;;;;;;;;;;;;;;2.39;92.92;104278.72;5030414;28;19920;-70
2022/01/13 02:20:17;;;;;;;;;;;;;;;2.42;92.90;104285.94;5030912;28;19909;-70
2022/01/13 02:22:43;;;;;;;;;;;;;;;2.41;92.87;104276.31;5024236;28;20232;-68
2022/01/13 02:25:08;;;;;;;;;;;;;;;2.43;92.97;104278.34;5024359;28;19924;-70
2022/01/13 02:27:33;;;;;;;;;;;;;;;2.45;92.74;104279.44;5025182;28;20004;-69
2022/01/13 02:29:59;;;;;;;;;;;;;;;2.44;92.88;104279.28;5031172;28;19936;-69
2022/01/13 02:32:24;;;;;;;;;;;;;;;2.43;92.89;104272.25;5046855;28;19979;-68
2022/01/13 02:34:49;;;;;;;;;;;;;;;2.47;92.89;104261.50;5049442;28;19962;-71
2022/01/13 02:37:15;;;;;;;;;;;;;;;2.46;92.75;104255.44;5049963;28;19909;-69
2022/01/13 02:39:41;;;;;;;;;;;;;;;2.47;92.72;104251.16;5048301;28;19908;-69
2022/01/13 02:42:12;;;;;;;;;;;;;;;2.49;92.78;104241.00;5041516;28;19919;-71
2022/01/13 02:44:45;;;;;;;;;;;;;;;2.50;92.92;104242.84;5040308;28;19960;-69
2022/01/13 02:47:21;;;;;;;;;;;;;;;2.47;92.93;104241.75;5027000;28;19967;-69
2022/01/13 02:49:46;;;;;;;;;;;;;;;2.50;92.96;104241.19;5018864;28;19913;-70
2022/01/13 02:52:12;;;;;;;;;;;;;;;2.50;92.80;104241.19;5019399;28;19971;-70
2022/01/13 02:54:37;;;;;;;;;;;;;;;2.47;92.75;104239.16;5019197;28;19913;-70
2022/01/13 02:57:02;;;;;;;;;;;;;;;2.47;92.72;104238.22;5029768;28;19924;-70
2022/01/13 02:59:28;;;;;;;;;;;;;;;2.47;92.84;104249.50;5039458;28;19909;-69
2022/01/13 03:01:53;;;;;;;;;;;;;;;2.48;92.69;104247.81;5039242;28;20275;-68
2022/01/13 03:04:21;;;;;;;;;;;;;;;2.47;92.75;104245.97;5039700;28;20378;-70
2022/01/13 03:06:46;;;;;;;;;;;;;;;2.46;92.70;104245.09;5039140;28;19912;-69
2022/01/13 03:09:13;;;;;;;;;;;;;;;2.48;92.42;104245.22;5041158;28;20290;-70
2022/01/13 03:11:38;;;;;;;;;;;;;;;2.49;92.84;104241.91;5041183;28;19932;-69
2022/01/13 03:14:05;;;;;;;;;;;;;;;2.54;93.00;104237.28;5041917;28;19909;-70
2022/01/13 03:16:30;;;;;;;;;;;;;;;2.50;92.84;104238.59;5041301;28;19959;-70
2022/01/13 03:18:55;;;;;;;;;;;;;;;2.51;92.86;104232.69;5040935;28;19913;-70
2022/01/13 03:21:21;;;;;;;;;;;;;;;2.53;93.05;104230.25;5040484;28;20299;-69
2022/01/13 03:23:46;;;;;;;;;;;;;;;2.52;92.98;104224.16;5039804;28;19956;-70
2022/01/13 03:26:12;;;;;;;;;;;;;;;2.55;92.42;104229.69;5036040;28;19913;-71
2022/01/13 03:28:51;;;;;;;;;;;;;;;2.55;92.99;104224.50;5025001;28;20273;-69
2022/01/13 03:31:16;;;;;;;;;;;;;;;2.56;92.55;104223.75;5041139;28;19913;-70
2022/01/13 03:33:41;;;;;;;;;;;;;;;2.57;92.98;104235.94;5039494;28;20199;-70
2022/01/13 03:36:06;;;;;;;;;;;;;;;2.56;92.83;104233.19;5039009;28;19952;-70
2022/01/13 03:38:32;;;;;;;;;;;;;;;2.55;92.73;104221.91;5037389;28;19952;-69
2022/01/13 03:40:57;;;;;;;;;;;;;;;2.55;92.83;104221.91;5038241;28;19913;-69
2022/01/13 03:43:22;;;;;;;;;;;;;;;2.57;92.98;104220.41;5038145;28;19905;-70
2022/01/13 03:45:47;;;;;;;;;;;;;;;2.57;92.88;104220.41;5038109;28;19913;-70
2022/01/13 03:48:16;;;;;;;;;;;;;;;2.59;92.94;104215.44;5037677;28;19990;-69
2022/01/13 03:50:41;;;;;;;;;;;;;;;2.57;92.72;104220.41;5037338;28;19909;-70
2022/01/13 03:53:25;;;;;;;;;;;;;;;2.59;92.74;104207.66;5037375;28;20011;-70
2022/01/13 03:56:08;;;;;;;;;;;;;;;2.58;92.88;104214.53;5037882;28;19999;-70
2022/01/13 03:58:44;;;;;;;;;;;;;;;2.60;92.73;104213.03;5037369;28;19913;-70
2022/01/13 04:01:18;;;;;;;;;;;;;;;2.60;93.10;104210.44;5038264;28;19920;-69
2022/01/13 04:03:46;;;;;;;;;;;;;;;2.61;92.78;104221.69;5037447;28;19913;-70
2022/01/13 04:06:11;;;;;;;;;;;;;;;2.61;92.92;104220.03;5036444;28;19909;-70
2022/01/13 04:08:36;;;;;;;;;;;;;;;2.63;92.95;104229.66;5018543;28;19913;-69
2022/01/13 04:11:02;;;;;;;;;;;;;;;2.64;92.86;104229.84;5016828;28;19968;-69
2022/01/13 04:16:12;;;;;;;;;;;;;;;2.65;92.68;104222.97;5018272;28;20219;-69
2022/01/13 04:18:37;;;;;;;;;;;;;;;2.66;92.83;104224.84;5017147;28;19913;-69
2022/01/13 04:21:02;;;;;;;;;;;;;;;2.63;92.94;104225.41;5018145;28;19909;-70
2022/01/13 04:23:27;;;;;;;;;;;;;;;2.63;92.98;104212.47;5018486;28;19913;-70
2022/01/13 04:25:52;;;;;;;;;;;;;;;2.64;92.90;104215.97;5018590;28;19909;-70
2022/01/13 04:28:25;;;;;;;;;;;;;;;2.65;92.95;104213.56;5035785;28;20186;-70
2022/01/13 04:30:53;;;;;;;;;;;;;;;2.66;92.82;104214.50;5037797;28;19912;-69
2022/01/13 04:33:18;;;;;;;;;;;;;;;2.69;92.92;104207.97;5036660;28;19913;-70
2022/01/13 04:35:43;;;;;;;;;;;;;;;2.72;92.89;104212.59;5038020;28;19909;-69
2022/01/13 04:38:09;;;;;;;;;;;;;;;2.73;92.91;104219.59;5022632;28;20311;-69
2022/01/13 04:40:35;;;;;;;;;;;;;;;2.71;92.85;104222.03;5021471;28;19909;-69
2022/01/13 04:43:01;;;;;;;;;;;;;;;2.71;92.83;104211.69;5021933;28;19956;-70
2022/01/13 04:45:26;;;;;;;;;;;;;;;2.74;92.83;104227.53;5023249;28;20212;-71
2022/01/13 04:47:53;;;;;;;;;;;;;;;2.75;93.03;104213.84;5035108;28;19935;-70
2022/01/13 04:50:18;;;;;;;;;;;;;;;2.78;92.86;104214.94;5041452;28;19912;-70
2022/01/13 04:52:44;;;;;;;;;;;;;;;2.72;92.83;104208.34;5040763;28;20306;-70
2022/01/13 04:55:11;;;;;;;;;;;;;;;2.69;92.84;104197.63;5041394;28;19909;-69
2022/01/13 04:57:36;;;;;;;;;;;;;;;2.68;92.76;104200.06;5021745;28;19967;-70
2022/01/13 05:00:06;;;;;;;;;;;;;;;2.70;92.90;104206.31;5041491;28;19920;-70
2022/01/13 05:02:31;;;;;;;;;;;;;;;2.75;92.81;104206.09;5041678;28;20249;-69
2022/01/13 05:04:56;;;;;;;;;;;;;;;2.80;92.66;104213.47;5041517;28;19924;-70
2022/01/13 05:07:21;;;;;;;;;;;;;;;2.76;92.83;104217.38;5031305;28;19928;-70
2022/01/13 05:09:47;;;;;;;;;;;;;;;2.72;92.73;104221.28;5021403;28;19913;-69
2022/01/13 05:12:12;;;;;;;;;;;;;;;2.71;92.74;104214.28;5021551;28;20012;-69
2022/01/13 05:14:37;;;;;;;;;;;;;;;2.70;92.58;104222.78;5021454;28;19953;-69
2022/01/13 05:17:23;;;;;;;;;;;;;;;2.71;92.70;104224.63;5021824;28;20252;-69
2022/01/13 05:20:08;;;;;;;;;;;;;;;2.73;92.85;104217.00;5020709;28;20232;-70
2022/01/13 05:22:33;;;;;;;;;;;;;;;2.73;92.86;104215.34;5020195;28;19910;-70
2022/01/13 05:24:58;;;;;;;;;;;;;;;2.77;92.83;104214.03;5020491;28;19988;-70
2022/01/13 05:27:24;;;;;;;;;;;;;;;2.75;92.44;104211.28;5037045;28;20012;-69
2022/01/13 05:29:49;;;;;;;;;;;;;;;2.78;92.82;104220.13;5040770;28;20001;-70
2022/01/13 05:32:15;;;;;;;;;;;;;;;2.81;92.67;104217.91;5040224;28;19955;-70
2022/01/13 05:34:40;;;;;;;;;;;;;;;2.84;92.88;104218.25;5040710;28;20259;-70
2022/01/13 05:37:05;;;;;;;;;;;;;;;2.80;92.45;104216.97;5040734;28;19909;-71
2022/01/13 05:39:30;;;;;;;;;;;;;;;2.80;92.71;104213.47;5040439;28;19924;-71
2022/01/13 05:41:55;;;;;;;;;;;;;;;2.86;92.92;104212.50;5040098;28;19913;-71
2022/01/13 05:44:21;;;;;;;;;;;;;;;2.85;92.77;104214.91;5040279;28;19916;-69
2022/01/13 05:46:46;;;;;;;;;;;;;;;2.87;92.84;104214.34;5039638;28;20216;-70
2022/01/13 05:49:11;;;;;;;;;;;;;;;2.87;92.76;104208.25;5040009;28;19913;-70
2022/01/13 05:51:36;;;;;;;;;;;;;;;2.86;92.83;104209.91;5039762;28;19913;-70
2022/01/13 05:54:02;;;;;;;;;;;;;;;2.88;92.74;104211.00;5040749;28;19951;-69
2022/01/13 05:56:27;;;;;;;;;;;;;;;2.87;92.78;104203.09;5039421;28;19913;-70
2022/01/13 05:58:52;;;;;;;;;;;;;;;2.87;92.81;104210.84;5039871;28;19928;-70
2022/01/13 06:01:17;;;;;;;;;;;;;;;2.89;92.87;104212.84;5040039;28;20279;-70
2022/01/13 06:03:43;;;;;;;;;;;;;;;2.91;92.79;104209.53;5039381;28;20268;-70
2022/01/13 06:06:08;;;;;;;;;;;;;;;2.93;92.96;104215.78;5039358;28;20290;-70
2022/01/13 06:08:34;;;;;;;;;;;;;;;2.94;92.92;104215.03;5039728;28;20331;-71
2022/01/13 06:11:00;;;;;;;;;;;;;;;2.96;92.84;104213.53;5039579;28;19917;-68
2022/01/13 06:13:25;;;;;;;;;;;;;;;2.97;93.00;104221.50;5040190;28;19915;-69
2022/01/13 06:15:50;;;;;;;;;;;;;;;2.96;92.95;104216.13;5039050;28;19959;-68
2022/01/13 06:18:15;;;;;;;;;;;;;;;2.97;93.08;104208.53;5020026;28;19909;-70
2022/01/13 06:20:41;;;;;;;;;;;;;;;2.98;92.96;104210.38;5019252;28;19909;-69
2022/01/13 06:23:07;;;;;;;;;;;;;;;3.01;92.96;104209.81;5018911;28;19975;-69
2022/01/13 06:25:32;;;;;;;;;;;;;;;3.05;92.43;104211.09;5020779;28;19910;-70
2022/01/13 06:27:58;;;;;;;;;;;;;;;3.06;93.08;104215.53;5021195;28;20047;-69
2022/01/13 06:30:23;;;;;;;;;;;;;;;3.06;92.87;104207.75;5019957;28;19909;-70
2022/01/13 06:32:48;;;;;;;;;;;;;;;3.07;93.14;104219.94;5019609;28;19917;-69
2022/01/13 06:35:14;;;;;;;;;;;;;;;3.07;93.12;104213.13;5020030;28;19909;-69
2022/01/13 06:37:41;;;;;;;;;;;;;;;3.10;93.12;104205.69;5035387;28;19913;-70
2022/01/13 06:40:06;;;;;;;;;;;;;;;3.07;93.04;104205.34;5040364;28;19909;-68
2022/01/13 06:42:31;;;;;;;;;;;;;;;3.09;93.25;104215.84;5040147;28;20186;-69
2022/01/13 06:44:57;;;;;;;;;;;;;;;3.09;92.92;104211.59;5039679;28;19916;-70
2022/01/13 06:47:22;;;;;;;;;;;;;;;3.10;93.03;104212.50;5039371;28;20218;-70
2022/01/13 06:49:47;;;;;;;;;;;;;;;3.15;93.15;104217.50;5039019;28;19913;-70
2022/01/13 06:52:13;;;;;;;;;;;;;;;3.14;92.89;104213.06;5039521;28;19913;-69
2022/01/13 06:54:38;;;;;;;;;;;;;;;3.16;92.82;104211.56;5038993;28;20291;-69
2022/01/13 06:57:03;;;;;;;;;;;;;;;3.16;93.11;104213.22;5029501;28;20257;-69
2022/01/13 06:59:29;;;;;;;;;;;;;;;3.16;93.76;104214.16;5029964;28;19920;-68
2022/01/13 07:01:56;;;;;;;;;;;;;;;3.18;92.90;104214.31;5018321;28;19909;-70
2022/01/13 07:04:21;;;;;;;;;;;;;;;3.20;92.96;104217.06;5021915;28;19923;-69
2022/01/13 07:06:47;;;;;;;;;;;;;;;3.19;93.17;104216.16;5030211;28;19917;-69
2022/01/13 07:09:14;;;;;;;;;;;;;;;3.21;92.91;104219.84;5030009;28;19971;-70
2022/01/13 07:11:40;;;;;;;;;;;;;;;3.21;92.96;104224.09;5024162;28;19925;-70
2022/01/13 07:14:05;;;;;;;;;;;;;;;3.21;93.01;104222.44;5029703;28;19974;-69
2022/01/13 07:16:30;;;;;;;;;;;;;;;3.22;93.06;104213.91;5027691;28;19940;-70
2022/01/13 07:18:56;;;;;;;;;;;;;;;3.26;92.95;104215.19;5025501;28;20005;-70
2022/01/13 07:21:24;;;;;;;;;;;;;;;3.25;93.05;104208.16;5019424;28;20004;-70
2022/01/13 07:23:52;;;;;;;;;;;;;;;3.28;92.94;104211.06;5019287;28;20184;-69
2022/01/13 07:26:17;;;;;;;;;;;;;;;3.29;93.02;104213.84;5018402;28;19909;-70
2022/01/13 07:28:42;;;;;;;;;;;;;;;3.28;92.98;104209.44;5030061;28;20027;-70
2022/01/13 07:31:07;;;;;;;;;;;;;;;3.33;92.94;104209.00;5044109;28;19916;-70
2022/01/13 07:33:33;;;;;;;;;;;;;;;3.30;93.05;104209.56;5044932;28;19999;-70
2022/01/13 07:35:58;;;;;;;;;;;;;;;3.28;92.93;104218.84;5018051;28;19943;-70
2022/01/13 07:38:23;;;;;;;;;;;;;;;3.28;93.22;104218.84;5027210;28;19917;-69
2022/01/13 07:40:52;;;;;;;;;;;;;;;3.29;93.06;104216.44;5018736;28;19909;-69
2022/01/13 07:43:22;;;;;;;;;;;;;;;3.28;92.89;104219.78;5017128;28;20196;-67
2022/01/13 07:45:48;;;;;;;;;;;;;;;3.24;93.15;104219.28;5003164;28;19920;-70
2022/01/13 07:48:13;;;;;;;;;;;;;;;3.27;92.82;104223.13;5031704;28;19913;-70
2022/01/13 07:50:39;;;;;;;;;;;;;;;3.25;92.92;104234.97;5038076;28;19951;-70
2022/01/13 07:53:04;;;;;;;;;;;;;;;3.29;92.75;104236.22;5030406;28;19918;-70
2022/01/13 07:55:29;;;;;;;;;;;;;;;3.32;93.04;104241.78;5017635;28;20015;-70
2022/01/13 07:57:54;;;;;;;;;;;;;;;3.36;92.78;104238.78;5018314;28;20011;-69
2022/01/13 08:00:20;;;;;;;;;;;;;;;3.31;92.88;104245.13;5016974;28;20008;-70
2022/01/13 08:02:45;;;;;;;;;;;;;;;3.29;92.85;104241.41;5016790;28;19956;-70
2022/01/13 08:05:11;;;;;;;;;;;;;;;3.30;92.74;104243.25;5025052;28;19959;-69
2022/01/13 08:07:36;;;;;;;;;;;;;;;3.34;93.08;104240.28;5037509;28;19920;-69
2022/01/13 08:10:02;;;;;;;;;;;;;;;3.33;92.84;104240.09;5037187;28;20242;-70
2022/01/13 08:12:27;;;;;;;;;;;;;;;3.35;92.96;104244.69;5036546;28;20224;-71
2022/01/13 08:14:53;;;;;;;;;;;;;;;3.34;92.89;104245.47;5037729;28;19999;-69
2022/01/13 08:19:45;;;;;;;;;;;;;;;3.37;92.89;104240.59;5037686;28;19917;-71
2022/01/13 08:20:04;;;;;;;;;;;;;;;3.38;92.95;104242.47;5037743;28;19909;-70
2022/01/13 08:22:29;;;;;;;;;;;;;;;3.38;93.13;104241.53;5037521;28;19909;-70
2022/01/13 08:24:55;;;;;;;;;;;;;;;3.42;92.92;104242.06;5037680;28;19916;-70
2022/01/13 08:27:20;;;;;;;;;;;;;;;3.43;93.14;104237.81;5037063;28;19920;-70
2022/01/13 08:29:45;;;;;;;;;;;;;;;3.48;92.95;104246.09;5036570;28;19913;-70
2022/01/13 08:32:14;;;;;;;;;;;;;;;3.45;92.79;104244.06;5037628;28;20295;-69
2022/01/13 08:34:39;;;;;;;;;;;;;;;3.47;92.83;104252.03;5019578;28;19916;-72
2022/01/13 08:37:05;;;;;;;;;;;;;;;3.47;92.93;104250.34;5037840;28;19908;-69
2022/01/13 08:39:32;;;;;;;;;;;;;;;3.46;92.95;104255.34;5036530;28;19932;-70
2022/01/13 08:41:57;;;;;;;;;;;;;;;3.46;93.01;104258.88;5028590;28;20120;-69
2022/01/13 08:44:22;;;;;;;;;;;;;;;3.48;92.78;104251.28;5016783;28;20305;-70
2022/01/13 08:46:48;;;;;;;;;;;;;;;3.51;92.98;104256.78;5017419;28;19913;-70
2022/01/13 08:49:17;;;;;;;;;;;;;;;3.50;92.78;104253.31;5016552;28;20337;-70
2022/01/13 08:51:42;;;;;;;;;;;;;;;3.51;92.98;104247.38;5017004;28;19920;-71
2022/01/13 08:54:07;;;;;;;;;;;;;;;3.54;93.02;104254.53;5017791;28;20008;-71
2022/01/13 08:56:32;;;;;;;;;;;;;;;3.55;92.83;104256.41;5047257;28;19908;-72
2022/01/13 08:58:58;;;;;;;;;;;;;;;3.60;93.02;104252.63;5039962;28;19928;-70
2022/01/13 09:01:23;;;;;;;;;;;;;;;3.59;92.97;104258.56;5057457;28;19908;-69
2022/01/13 09:03:48;;;;;;;;;;;;;;;3.62;92.85;104258.91;5056331;28;19909;-70
2022/01/13 09:06:13;;;;;;;;;;;;;;;3.64;92.99;104257.44;5045709;28;19909;-69
2022/01/13 09:08:39;;;;;;;;;;;;;;;3.68;93.23;104263.88;5034809;28;19920;-71
2022/01/13 09:11:04;;;;;;;;;;;;;;;3.68;92.83;104262.19;5034022;28;19923;-71
2022/01/13 09:13:35;;;;;;;;;;;;;;;3.72;92.97;104260.84;5036878;28;19920;-69
2022/01/13 09:16:01;;;;;;;;;;;;;;;3.79;92.94;104265.06;5037350;28;19959;-70
2022/01/13 09:18:46;;;;;;;;;;;;;;;3.80;93.07;104260.03;5037059;28;19909;-70
2022/01/13 09:21:11;;;;;;;;;;;;;;;3.82;92.96;104270.59;5019508;28;19919;-70
2022/01/13 09:23:36;;;;;;;;;;;;;;;3.84;93.08;104264.84;5017103;28;20011;-69
2022/01/13 09:26:03;;;;;;;;;;;;;;;3.85;93.04;104265.72;5020449;28;19959;-69
2022/01/13 09:28:28;;;;;;;;;;;;;;;3.87;93.01;104265.91;5020770;28;19913;-70
2022/01/13 09:30:53;;;;;;;;;;;;;;;3.92;93.17;104255.28;5035555;28;20276;-70
2022/01/13 09:33:19;;;;;;;;;;;;;;;3.92;92.91;104250.09;5040063;28;19913;-69
2022/01/13 09:35:44;;;;;;;;;;;;;;;3.95;93.06;104254.72;5040525;28;19954;-70
2022/01/13 09:38:09;;;;;;;;;;;;;;;3.99;92.92;104254.31;5039029;28;19912;-70
2022/01/13 09:40:34;;;;;;;;;;;;;;;3.98;93.04;104250.78;5039852;28;19908;-69
2022/01/13 09:43:02;;;;;;;;;;;;;;;3.99;93.01;104262.09;5040102;28;20220;-69
2022/01/13 09:45:27;;;;;;;;;;;;;;;3.98;92.80;104255.97;5038706;28;19909;-70
2022/01/13 09:47:52;;;;;;;;;;;;;;;3.99;92.76;104255.22;5032581;28;19920;-71
2022/01/13 09:50:25;;;;;;;;;;;;;;;4.01;92.86;104259.66;5019789;28;19928;-70
2022/01/13 09:52:51;;;;;;;;;;;;;;;4.03;92.73;104263.34;5019199;28;20276;-71
2022/01/13 09:55:16;;;;;;;;;;;;;;;4.05;92.75;104267.03;5019665;28;19909;-70
2022/01/13 09:57:48;;;;;;;;;;;;;;;4.06;92.83;104271.47;5022863;28;19920;-69
2022/01/13 10:00:15;;;;;;;;;;;;;;;4.06;92.84;104266.28;5038909;28;19996;-69
2022/01/13 10:02:40;;;;;;;;;;;;;;;4.07;92.76;104270.69;5038908;28;20232;-70
2022/01/13 10:05:06;;;;;;;;;;;;;;;4.12;93.02;104267.84;5038510;28;19937;-70
2022/01/13 10:07:34;;;;;;;;;;;;;;;4.13;92.92;104268.78;5031662;28;19913;-70
2022/01/13 10:10:00;;;;;;;;;;;;;;;4.16;92.94;104266.53;5010703;28;19917;-70
2022/01/13 10:12:34;;;;;;;;;;;;;;;4.15;92.87;104262.09;5018540;28;19928;-69
2022/01/13 10:17:29;;;;;;;;;;;;;;;4.21;92.61;104260.19;5039342;28;19909;-68
2022/01/13 10:19:57;;;;;;;;;;;;;;;4.18;92.72;104258.91;5038977;28;19909;-70
2022/01/13 10:22:23;;;;;;;;;;;;;;;4.20;92.75;104255.75;5039301;28;20307;-70
2022/01/13 10:24:52;;;;;;;;;;;;;;;4.28;92.82;104259.16;5038640;28;19963;-70
2022/01/13 10:27:22;;;;;;;;;;;;;;;4.33;92.42;104249.28;5037417;28;19917;-70
2022/01/13 10:29:51;;;;;;;;;;;;;;;4.35;92.47;104260.78;5038782;28;19906;-70
2022/01/13 10:32:27;;;;;;;;;;;;;;;4.37;92.62;104251.47;5035450;28;19967;-71
2022/01/13 10:34:57;;;;;;;;;;;;;;;4.39;92.58;104256.06;5029846;28;19959;-68
2022/01/13 10:37:33;;;;;;;;;;;;;;;4.45;92.49;104260.06;5039130;28;19909;-70
2022/01/13 10:40:01;;;;;;;;;;;;;;;4.42;91.95;104262.34;5018906;28;19935;-70
2022/01/13 10:45:07;;;;;;;;;;;;;;;4.43;92.29;104253.81;5024191;28;19913;-71
2022/01/13 10:47:32;;;;;;;;;;;;;;;4.49;92.57;104252.78;5024799;28;19920;-70
2022/01/13 10:50:02;;;;;;;;;;;;;;;4.51;92.33;104250.38;5030334;28;19921;-71
2022/01/13 10:52:28;;;;;;;;;;;;;;;4.51;92.44;104242.56;5030104;28;20275;-70
2022/01/13 10:54:55;;;;;;;;;;;;;;;4.52;92.49;104245.34;5023922;28;19913;-71
2022/01/13 10:57:21;;;;;;;;;;;;;;;4.53;92.37;104243.66;5020656;28;19913;-70
2022/01/13 10:59:46;;;;;;;;;;;;;;;4.58;92.22;104246.75;5025029;28;19913;-68
2022/01/13 11:02:12;;;;;;;;;;;;;;;4.59;92.25;104246.91;5030490;28;19978;-71
2022/01/13 11:04:37;;;;;;;;;;;;;;;4.62;92.21;104243.72;5037261;28;19921;-70
2022/01/13 11:07:12;;;;;;;;;;;;;;;4.61;92.05;104245.41;5030794;28;19952;-70
2022/01/13 11:09:42;;;;;;;;;;;;;;;4.64;91.96;104240.56;5038241;28;20188;-71
2022/01/13 11:12:07;;;;;;;;;;;;;;;4.65;92.12;104236.25;5038590;28;20019;-72
2022/01/13 11:14:40;;;;;;;;;;;;;;;4.64;92.13;104234.44;5038104;28;19913;-70
2022/01/13 11:17:05;;;;;;;;;;;;;;;4.71;92.20;104231.72;5012849;28;19913;-71
2022/01/13 11:19:35;;;;;;;;;;;;;;;4.78;92.09;104222.91;5039170;28;19963;-69
2022/01/13 11:22:02;;;;;;;;;;;;;;;4.83;92.26;104221.72;5023837;28;19909;-69
2022/01/13 11:24:30;;;;;;;;;;;;;;;4.87;92.20;104222.97;5021996;28;19920;-70
2022/01/13 11:26:55;;;;;;;;;;;;;;;4.84;91.87;104220.06;5034042;28;19925;-70
2022/01/13 11:29:21;;;;;;;;;;;;;;;4.84;92.00;104222.66;5036764;28;20019;-70
2022/01/13 11:31:47;;;;;;;;;;;;;;;4.82;92.15;104227.69;5036744;28;19924;-69
2022/01/13 11:34:16;;;;;;;;;;;;;;;4.83;91.74;104224.34;5034149;28;20075;-70
2022/01/13 11:36:45;;;;;;;;;;;;;;;4.85;91.58;104228.00;5021504;28;19909;-69
2022/01/13 11:39:16;;;;;;;;;;;;;;;4.87;91.56;104220.38;5037610;28;19955;-69
2022/01/13 11:42:05;;;;;;;;;;;;;;;4.87;91.48;104220.38;5023732;28;19913;-70
2022/01/13 11:45:06;;;;;;;;;;;;;;;4.87;91.52;104221.31;5037531;28;19913;-71
2022/01/13 11:47:31;;;;;;;;;;;;;;;4.88;91.68;104220.56;5034228;28;19909;-71
2022/01/13 11:50:09;;;;;;;;;;;;;;;4.93;91.75;104227.13;5034378;28;19920;-67
2022/01/13 11:52:43;;;;;;;;;;;;;;;4.93;91.60;104221.03;5035965;28;19995;-70
2022/01/13 11:55:18;;;;;;;;;;;;;;;4.99;91.41;104228.56;5033761;28;19913;-70
2022/01/13 11:57:44;;;;;;;;;;;;;;;4.97;91.38;104212.78;5020101;28;19959;-70
2022/01/13 12:00:21;;;;;;;;;;;;;;;4.98;91.39;104205.94;5036395;28;19944;-70
2022/01/13 12:02:46;;;;;;;;;;;;;;;5.00;91.31;104207.00;5036639;28;19964;-72
2022/01/13 12:05:17;;;;;;;;;;;;;;;5.02;91.34;104208.09;5036381;28;19960;-71
2022/01/13 12:07:44;;;;;;;;;;;;;;;5.01;91.31;104199.38;5036790;28;19909;-70
2022/01/13 12:10:09;;;;;;;;;;;;;;;5.01;91.13;104195.84;5037396;28;20263;-71
2022/01/13 12:12:35;;;;;;;;;;;;;;;5.03;91.21;104195.25;5035392;28;19948;-71
2022/01/13 12:15:16;;;;;;;;;;;;;;;5.02;90.93;104189.91;5036665;28;19909;-70
2022/01/13 12:17:46;;;;;;;;;;;;;;;5.04;90.77;104188.41;5036566;28;19913;-70
2022/01/13 12:20:20;;;;;;;;;;;;;;;5.03;90.57;104182.28;5037081;28;19909;-71
2022/01/13 12:22:55;;;;;;;;;;;;;;;4.95;90.31;104175.38;5021868;28;20000;-71
2022/01/13 12:25:21;;;;;;;;;;;;;;;4.92;90.55;104173.34;5017058;28;20255;-70
2022/01/13 12:27:52;;;;;;;;;;;;;;;4.97;90.57;104170.34;5016907;28;19913;-72
2022/01/13 12:30:21;;;;;;;;;;;;;;;4.99;90.39;104166.22;5018137;28;19924;-71
2022/01/13 12:32:47;;;;;;;;;;;;;;;4.97;90.87;104165.13;5016845;28;19917;-71
2022/01/13 12:35:28;;;;;;;;;;;;;;;5.00;90.46;104156.00;5016832;28;19960;-70
2022/01/13 12:38:04;;;;;;;;;;;;;;;4.99;90.48;104150.63;5018304;28;20008;-72
2022/01/13 12:40:41;;;;;;;;;;;;;;;4.97;90.29;104147.84;5017199;28;19921;-71
2022/01/13 12:43:22;;;;;;;;;;;;;;;4.95;90.30;104149.38;5017903;28;20028;-71
2022/01/13 12:45:48;;;;;;;;;;;;;;;4.95;90.34;104154.59;5017148;28;20172;-72
2022/01/13 12:48:13;;;;;;;;;;;;;;;4.97;90.37;104157.34;5017258;28;19920;-72
2022/01/13 12:50:45;;;;;;;;;;;;;;;4.97;90.39;104163.44;5019482;28;20207;-70
2022/01/13 12:53:30;;;;;;;;;;;;;;;4.98;90.01;104160.09;5036539;28;20144;-70
2022/01/13 12:56:06;;;;;;;;;;;;;;;5.04;90.41;104154.63;5037524;28;20289;-71
2022/01/13 12:58:33;;;;;;;;;;;;;;;5.00;90.29;104155.06;5038299;28;19944;-71
2022/01/13 13:01:08;;;;;;;;;;;;;;;5.01;90.16;104157.81;5037720;28;19925;-71
2022/01/13 13:03:33;;;;;;;;;;;;;;;5.01;90.12;104147.44;5021424;28;19920;-72
2022/01/13 13:05:59;;;;;;;;;;;;;;;5.03;90.07;104148.50;5031097;28;19908;-70
2022/01/13 13:08:25;;;;;;;;;;;;;;;5.01;90.11;104143.91;5043902;28;19924;-71